createdAt,value
2018-11-06T00:02:05.358Z,8.28
2018-11-06T00:04:51.507Z,8.63
2018-11-06T00:07:36.044Z,9.18
2018-11-06T00:10:29.539Z,8.15
2018-11-06T00:21:29.126Z,9.85
2018-11-06T00:24:02.662Z,7.90
2018-11-06T00:26:34.887Z,8.57
2018-11-06T00:29:17.425Z,8.15
2018-11-06T00:31:51.121Z,8.20
2018-11-06T00:34:21.882Z,7.87
2018-11-06T00:36:52.224Z,8.03
2018-11-06T00:39:23.232Z,7.78
2018-11-06T00:41:55.260Z,7.70
2018-11-06T00:44:35.296Z,8.20
2018-11-06T00:47:05.322Z,8.20
2018-11-06T00:49:36.405Z,7.63
2018-11-06T00:52:12.225Z,7.65
2018-11-06T00:54:46.026Z,7.70
2018-11-06T00:57:19.968Z,8.08
2018-11-06T00:59:51.500Z,7.55
2018-11-06T01:02:23.400Z,7.53
2018-11-06T01:04:53.174Z,8.00
2018-11-06T01:07:22.971Z,7.22
2018-11-06T01:09:54.260Z,7.90
2018-11-06T01:12:26.489Z,7.45
2018-11-06T01:14:57.979Z,7.78
2018-11-06T01:17:27.949Z,7.83
2018-11-06T01:19:59.919Z,7.40
2018-11-06T01:22:32.008Z,6.87
2018-11-06T01:25:04.306Z,7.12
2018-11-06T01:27:35.559Z,7.25
2018-11-06T01:30:09.914Z,7.42
2018-11-06T01:32:40.376Z,7.50
2018-11-06T01:35:13.111Z,7.40
2018-11-06T01:37:44.414Z,7.25
2018-11-06T01:40:16.069Z,7.43
2018-11-06T01:42:46.153Z,7.10
2018-11-06T01:45:18.336Z,7.15
2018-11-06T01:47:55.496Z,7.40
2018-11-06T01:50:25.700Z,7.10
2018-11-06T01:52:55.824Z,6.90
2018-11-06T01:55:26.513Z,6.90
2018-11-06T01:57:56.089Z,6.80
2018-11-06T02:00:27.568Z,6.87
2018-11-06T02:02:57.507Z,6.90
2018-11-06T02:05:28.009Z,6.95
2018-11-06T02:07:58.793Z,6.58
2018-11-06T02:10:29.906Z,6.65
2018-11-06T02:12:59.652Z,6.70
2018-11-06T02:15:31.746Z,7.00
2018-11-06T02:18:02.585Z,6.87
2018-11-06T02:20:33.832Z,7.15
2018-11-06T02:23:04.379Z,6.50
2018-11-06T02:25:36.889Z,6.70
2018-11-06T02:28:08.240Z,6.47
2018-11-06T02:30:47.515Z,6.47
2018-11-06T02:33:17.959Z,7.03
2018-11-06T02:35:50.378Z,6.40
2018-11-06T02:38:20.613Z,6.70
2018-11-06T02:40:55.588Z,6.58
2018-11-06T02:43:27.243Z,6.65
2018-11-06T02:45:57.216Z,6.72
2018-11-06T02:48:27.477Z,6.60
2018-11-06T02:50:59.545Z,7.00
2018-11-06T02:53:30.204Z,6.58
2018-11-06T02:56:01.126Z,6.40
2018-11-06T02:58:32.544Z,6.58
2018-11-06T03:01:03.397Z,6.37
2018-11-06T03:03:40.161Z,6.83
2018-11-06T03:06:11.953Z,6.47
2018-11-06T03:08:43.504Z,6.65
2018-11-06T03:11:14.004Z,6.50
2018-11-06T03:13:43.619Z,7.08
2018-11-06T03:16:15.424Z,6.70
2018-11-06T03:18:45.165Z,6.80
2018-11-06T03:21:17.297Z,7.10
2018-11-06T03:23:47.526Z,7.50
2018-11-06T03:26:17.538Z,7.12
2018-11-06T03:28:48.939Z,7.00
2018-11-06T03:31:19.862Z,7.05
2018-11-06T03:33:50.620Z,6.80
2018-11-06T03:36:21.112Z,7.57
2018-11-06T03:38:53.900Z,7.10
2018-11-06T03:41:24.776Z,7.28
2018-11-06T03:43:55.836Z,7.12
2018-11-06T03:46:28.266Z,7.10
2018-11-06T03:48:59.105Z,7.40
2018-11-06T03:51:33.034Z,6.78
2018-11-06T03:54:04.969Z,7.40
2018-11-06T03:56:41.909Z,7.60
2018-11-06T03:59:12.935Z,7.10
2018-11-06T04:01:43.390Z,7.60
2018-11-06T04:04:13.144Z,7.22
2018-11-06T04:07:08.476Z,7.50
2018-11-06T04:09:38.715Z,7.70
2018-11-06T04:12:09.203Z,7.10
2018-11-06T04:14:41.684Z,7.60
2018-11-06T04:17:15.862Z,7.75
2018-11-06T04:19:46.017Z,7.20
2018-11-06T04:22:18.600Z,7.78
2018-11-06T04:24:49.970Z,8.00
2018-11-06T04:27:25.590Z,7.65
2018-11-06T04:30:03.264Z,7.83
2018-11-06T04:32:39.133Z,8.15
2018-11-06T04:35:10.338Z,7.85
2018-11-06T04:37:42.042Z,7.90
2018-11-06T04:40:13.987Z,8.00
2018-11-06T04:42:43.999Z,7.97
2018-11-06T04:45:14.523Z,8.95
2018-11-06T04:47:45.286Z,9.08
2018-11-06T04:50:15.787Z,8.73
2018-11-06T04:52:53.354Z,8.83
2018-11-06T04:55:25.877Z,8.55
2018-11-06T04:57:56.083Z,9.10
2018-11-06T05:00:27.539Z,8.25
2018-11-06T05:03:05.308Z,8.73
2018-11-06T05:05:35.557Z,8.03
2018-11-06T05:08:07.105Z,7.95
2018-11-06T05:10:39.051Z,8.05
2018-11-06T05:13:09.433Z,7.87
2018-11-06T05:15:40.976Z,8.57
2018-11-06T05:18:22.411Z,8.38
2018-11-06T05:23:33.988Z,8.03
2018-11-06T05:26:08.481Z,8.27
2018-11-06T05:28:40.388Z,7.85
2018-11-06T05:31:24.515Z,7.55
2018-11-06T05:33:56.047Z,8.20
2018-11-06T05:36:29.816Z,9.10
2018-11-06T05:39:04.995Z,7.95
2018-11-06T05:41:46.614Z,9.20
2018-11-06T05:44:22.088Z,8.83
2018-11-06T05:46:58.547Z,12.73
2018-11-06T05:49:34.702Z,8.65
2018-11-06T05:52:06.518Z,8.30
2018-11-06T05:54:37.848Z,9.60
2018-11-06T05:57:10.177Z,8.85
2018-11-06T05:59:40.094Z,9.65
2018-11-06T06:02:12.317Z,9.23
2018-11-06T06:04:46.812Z,9.07
2018-11-06T06:07:22.565Z,9.28
2018-11-06T06:10:04.901Z,8.98
2018-11-06T06:12:39.567Z,9.13
2018-11-06T06:15:16.983Z,9.15
2018-11-06T06:17:47.583Z,9.23
2018-11-06T06:20:20.961Z,9.10
2018-11-06T06:23:00.166Z,8.93
2018-11-06T06:25:32.920Z,9.58
2018-11-06T06:28:05.685Z,9.45
2018-11-06T06:30:39.906Z,13.10
2018-11-06T06:33:14.770Z,9.95
2018-11-06T06:35:48.786Z,10.28
2018-11-06T06:38:31.382Z,9.88
2018-11-06T06:44:06.429Z,9.80
2018-11-06T06:46:41.286Z,9.65
2018-11-06T06:49:16.741Z,10.55
2018-11-06T06:51:49.208Z,10.60
2018-11-06T06:54:20.793Z,12.75
2018-11-06T06:56:52.506Z,11.53
2018-11-06T07:02:15.886Z,11.30
2018-11-06T07:07:29.892Z,11.00
2018-11-06T07:10:04.603Z,11.10
2018-11-06T07:12:41.245Z,10.95
2018-11-06T07:15:28.079Z,9.90
2018-11-06T07:18:06.699Z,10.00
2018-11-06T07:20:41.904Z,10.40
2018-11-06T07:23:13.074Z,10.13
2018-11-06T07:25:42.652Z,10.60
2018-11-06T07:30:51.587Z,10.23
2018-11-06T07:33:21.751Z,9.18
2018-11-06T07:35:52.182Z,9.40
2018-11-06T07:38:22.874Z,9.50
2018-11-06T07:40:53.338Z,8.53
2018-11-06T07:43:23.802Z,8.43
2018-11-06T07:45:56.060Z,8.57
2018-11-06T07:48:30.682Z,8.90
2018-11-06T07:51:07.195Z,8.13
2018-11-06T07:53:37.617Z,7.33
2018-11-06T07:56:08.481Z,7.65
2018-11-06T07:58:40.372Z,6.35
2018-11-06T08:01:09.965Z,6.05
2018-11-06T08:03:51.056Z,5.42
2018-11-06T08:06:22.232Z,5.78
2018-11-06T08:11:34.841Z,4.97
2018-11-06T08:14:08.464Z,5.10
2018-11-06T08:16:37.668Z,4.60
2018-11-06T08:19:11.376Z,4.90
2018-11-06T08:21:44.345Z,4.92
2018-11-06T08:24:15.080Z,4.70
2018-11-06T08:26:50.424Z,4.90
2018-11-06T08:29:20.127Z,4.30
2018-11-06T08:31:51.281Z,4.62
2018-11-06T08:34:26.505Z,4.70
2018-11-06T08:36:56.621Z,4.40
2018-11-06T08:39:26.147Z,3.87
2018-11-06T08:42:01.641Z,3.92
2018-11-06T08:44:42.257Z,4.00
2018-11-06T08:47:12.887Z,4.20
2018-11-06T08:49:42.891Z,4.17
2018-11-06T08:52:12.810Z,4.12
2018-11-06T08:54:43.816Z,4.40
2018-11-06T08:57:15.008Z,4.60
2018-11-06T08:59:49.536Z,4.35
2018-11-06T09:02:20.248Z,4.53
2018-11-06T09:04:52.947Z,4.62
2018-11-06T09:07:23.166Z,4.85
2018-11-06T09:09:56.871Z,4.33
2018-11-06T09:12:27.893Z,3.90
2018-11-06T09:15:03.228Z,3.90
2018-11-06T09:17:38.579Z,4.20
2018-11-06T09:20:09.939Z,3.92
2018-11-06T09:22:41.498Z,3.90
2018-11-06T09:25:16.002Z,4.12
2018-11-06T09:27:46.267Z,4.08
2018-11-06T09:30:22.403Z,4.30
2018-11-06T09:33:11.787Z,4.28
2018-11-06T09:35:44.842Z,4.70
2018-11-06T09:38:16.640Z,4.40
2018-11-06T09:40:48.082Z,4.30
2018-11-06T09:43:22.371Z,4.10
2018-11-06T09:45:59.440Z,4.15
2018-11-06T09:48:33.995Z,4.42
2018-11-06T09:51:05.898Z,4.17
2018-11-06T09:53:36.778Z,3.45
2018-11-06T09:56:09.128Z,4.28
2018-11-06T09:58:38.807Z,4.05
2018-11-06T10:01:08.919Z,6.30
2018-11-06T10:03:39.615Z,4.27
2018-11-06T10:06:10.587Z,4.50
2018-11-06T10:08:44.667Z,4.30
2018-11-06T10:11:16.570Z,3.40
2018-11-06T10:13:55.469Z,3.58
2018-11-06T10:16:29.687Z,3.85
2018-11-06T10:19:07.764Z,4.33
2018-11-06T10:21:38.594Z,4.22
2018-11-06T10:24:09.068Z,5.47
2018-11-06T10:26:39.689Z,4.40
2018-11-06T10:29:12.593Z,3.60
2018-11-06T10:31:47.606Z,3.75
2018-11-06T10:34:17.850Z,3.25
2018-11-06T10:36:48.661Z,2.80
2018-11-06T10:39:18.601Z,3.30
2018-11-06T10:41:49.744Z,2.65
2018-11-06T10:44:21.062Z,3.20
2018-11-06T10:47:01.017Z,3.40
2018-11-06T10:49:30.993Z,3.92
2018-11-06T10:52:01.767Z,3.05
2018-11-06T10:54:31.983Z,2.80
2018-11-06T10:57:01.653Z,2.98
2018-11-06T10:59:34.170Z,2.60
2018-11-06T11:02:12.246Z,3.63
2018-11-06T11:04:43.282Z,3.00
2018-11-06T11:07:14.186Z,3.60
2018-11-06T11:09:45.179Z,5.03
2018-11-06T11:12:19.782Z,4.00
2018-11-06T11:14:50.574Z,4.75
2018-11-06T11:17:22.034Z,3.62
2018-11-06T11:19:52.257Z,4.23
2018-11-06T11:22:23.285Z,2.87
2018-11-06T11:24:58.490Z,3.42
2018-11-06T11:27:33.419Z,2.67
2018-11-06T11:30:20.691Z,4.20
2018-11-06T11:32:52.905Z,2.42
2018-11-06T11:35:22.842Z,2.62
2018-11-06T11:37:57.975Z,2.87
2018-11-06T11:40:30.781Z,3.12
2018-11-06T11:43:01.932Z,2.90
2018-11-06T11:45:37.840Z,3.17
2018-11-06T11:48:08.401Z,2.90
2018-11-06T11:50:37.971Z,4.67
2018-11-06T11:53:07.301Z,3.67
2018-11-06T11:55:37.015Z,2.80
2018-11-06T11:58:06.723Z,3.33
2018-11-06T12:00:41.765Z,3.40
2018-11-06T12:03:13.107Z,2.93
2018-11-06T12:05:43.373Z,2.93
2018-11-06T12:08:12.805Z,3.30
2018-11-06T12:10:43.135Z,2.92
2018-11-06T12:13:13.277Z,3.30
2018-11-06T12:15:43.060Z,2.77
2018-11-06T12:21:14.819Z,3.43
2018-11-06T12:23:46.691Z,2.67
2018-11-06T12:26:19.474Z,2.50
2018-11-06T12:28:49.062Z,2.60
2018-11-06T12:31:25.321Z,2.70
2018-11-06T12:34:01.084Z,2.83
2018-11-06T12:36:35.918Z,2.52
2018-11-06T12:39:07.194Z,2.80
2018-11-06T12:41:38.461Z,3.20
2018-11-06T12:46:50.706Z,3.25
2018-11-06T12:49:20.201Z,4.07
2018-11-06T12:51:50.490Z,3.10
2018-11-06T12:54:22.739Z,3.30
2018-11-06T12:56:53.164Z,3.30
2018-11-06T12:59:24.704Z,3.12
2018-11-06T13:01:58.430Z,3.42
2018-11-06T13:04:28.939Z,3.03
2018-11-06T13:07:01.962Z,3.07
2018-11-06T13:09:31.734Z,4.67
2018-11-06T13:12:01.234Z,3.15
2018-11-06T13:14:30.567Z,2.98
2018-11-06T13:17:02.128Z,3.27
2018-11-06T13:19:31.518Z,3.50
2018-11-06T13:22:02.696Z,3.42
2018-11-06T13:24:32.052Z,3.77
2018-11-06T13:27:01.707Z,2.52
2018-11-06T13:29:32.733Z,3.12
2018-11-06T13:32:04.615Z,2.92
2018-11-06T13:34:36.554Z,2.97
2018-11-06T13:37:06.551Z,3.52
2018-11-06T13:39:38.823Z,3.37
2018-11-06T13:42:16.308Z,3.58
2018-11-06T13:48:07.458Z,2.65
2018-11-06T13:50:39.606Z,4.30
2018-11-06T13:53:09.618Z,3.17
2018-11-06T13:55:42.921Z,2.40
2018-11-06T13:58:14.474Z,2.70
2018-11-06T14:00:50.928Z,2.77
2018-11-06T14:03:21.267Z,3.58
2018-11-06T14:05:54.998Z,2.52
2018-11-06T14:11:13.533Z,2.52
2018-11-06T14:13:46.971Z,2.10
2018-11-06T14:16:19.734Z,2.10
2018-11-06T14:18:50.497Z,1.80
2018-11-06T14:24:01.557Z,2.00
2018-11-06T14:26:39.902Z,2.20
2018-11-06T14:29:50.858Z,1.77
2018-11-06T14:38:21.336Z,1.90
2018-11-06T14:43:58.135Z,2.10
2018-11-06T14:46:51.189Z,1.60
2018-11-06T14:53:06.584Z,2.20
2018-11-06T14:58:24.299Z,2.80
2018-11-06T15:21:07.942Z,2.52
2018-11-06T15:43:48.101Z,2.45
2018-11-06T15:49:11.319Z,2.10
2018-11-06T15:51:47.437Z,1.95
2018-11-06T15:54:18.547Z,1.92
2018-11-06T15:56:58.604Z,2.00
2018-11-06T15:59:29.563Z,2.35
2018-11-06T16:02:00.016Z,1.92
2018-11-06T16:13:14.032Z,2.87
2018-11-06T16:15:45.257Z,2.30
2018-11-06T16:18:16.005Z,2.60
2018-11-06T16:20:45.601Z,2.20
2018-11-06T16:23:16.452Z,2.57
2018-11-06T16:25:57.028Z,3.47
2018-11-06T16:28:27.581Z,2.40
2018-11-06T16:30:58.076Z,2.90
2018-11-06T16:33:31.617Z,2.87
2018-11-06T16:36:04.904Z,2.62
2018-11-06T16:38:35.324Z,3.20
2018-11-06T16:41:09.270Z,2.63
2018-11-06T16:43:41.227Z,2.60
2018-11-06T16:46:12.940Z,2.62
2018-11-06T16:48:43.726Z,2.62
2018-11-06T16:51:13.025Z,2.50
2018-11-06T16:53:43.049Z,2.72
2018-11-06T16:56:13.292Z,2.90
2018-11-06T16:58:53.695Z,3.15
2018-11-06T17:01:24.599Z,3.77
2018-11-06T17:03:54.084Z,3.00
2018-11-06T17:06:32.818Z,2.52
2018-11-06T17:09:05.524Z,2.50
2018-11-06T17:14:12.116Z,21.10
2018-11-06T17:16:42.148Z,7.37
2018-11-06T17:19:13.242Z,3.25
2018-11-06T17:21:43.443Z,3.62
2018-11-06T17:24:18.730Z,2.75
2018-11-06T17:26:49.083Z,2.58
2018-11-06T17:29:20.357Z,4.27
2018-11-06T17:31:54.675Z,10.50
2018-11-06T17:34:24.581Z,6.17
2018-11-06T17:36:58.161Z,3.40
2018-11-06T17:39:28.793Z,4.60
2018-11-06T17:42:01.091Z,4.53
2018-11-06T17:44:34.947Z,3.40
2018-11-06T17:47:05.277Z,3.98
2018-11-06T17:49:37.609Z,2.85
2018-11-06T17:52:18.282Z,4.50
2018-11-06T17:54:48.356Z,3.70
2018-11-06T17:57:21.794Z,3.60
2018-11-06T17:59:55.069Z,3.27
2018-11-06T18:02:42.797Z,4.10
2018-11-06T18:05:16.715Z,5.45
2018-11-06T18:07:46.475Z,4.20
2018-11-06T18:10:25.939Z,9.50
2018-11-06T18:15:47.539Z,4.40
2018-11-06T18:18:21.519Z,3.00
2018-11-06T18:20:54.843Z,3.35
2018-11-06T18:23:30.030Z,3.08
2018-11-06T18:26:01.190Z,2.70
2018-11-06T18:28:33.561Z,2.90
2018-11-06T18:31:05.154Z,2.80
2018-11-06T18:33:57.598Z,3.27
2018-11-06T18:36:29.307Z,3.27
2018-11-06T18:39:04.111Z,3.80
2018-11-06T18:41:39.954Z,3.37
2018-11-06T18:44:13.772Z,3.87
2018-11-06T18:46:52.639Z,3.40
2018-11-06T18:49:23.750Z,3.15
2018-11-06T18:51:55.125Z,4.12
2018-11-06T18:54:28.632Z,3.20
2018-11-06T18:56:58.944Z,3.67
2018-11-06T18:59:31.599Z,4.95
2018-11-06T19:02:01.092Z,6.65
2018-11-06T19:04:33.203Z,14.15
2018-11-06T19:07:05.170Z,11.48
2018-11-06T19:09:38.606Z,15.03
2018-11-06T19:12:09.027Z,5.67
2018-11-06T19:14:39.028Z,3.80
2018-11-06T19:17:10.542Z,3.27
2018-11-06T19:19:44.142Z,3.30
2018-11-06T19:24:57.627Z,3.17
2018-11-06T19:27:27.945Z,3.00
2018-11-06T19:30:04.904Z,3.12
2018-11-06T19:32:43.348Z,3.30
2018-11-06T19:35:13.109Z,2.80
2018-11-06T19:40:24.891Z,3.55
2018-11-06T19:42:59.424Z,3.22
2018-11-06T19:45:29.268Z,4.78
2018-11-06T19:48:04.444Z,4.97
2018-11-06T19:50:36.328Z,4.55
2018-11-06T19:53:08.208Z,3.33
2018-11-06T19:55:43.335Z,3.10
2018-11-06T19:58:14.863Z,3.33
2018-11-06T20:01:00.348Z,3.40
2018-11-06T20:06:09.665Z,3.35
2018-11-06T20:08:45.651Z,3.10
2018-11-06T20:11:17.049Z,3.00
2018-11-06T20:13:56.742Z,7.97
2018-11-06T20:16:28.915Z,3.65
2018-11-06T20:19:00.360Z,35.20
2018-11-06T20:21:35.540Z,5.72
2018-11-06T20:24:08.229Z,18.37
2018-11-06T20:26:49.949Z,4.80
2018-11-06T20:29:22.631Z,7.63
2018-11-06T20:31:52.217Z,3.42
2018-11-06T20:34:24.306Z,3.20
2018-11-06T20:36:59.470Z,3.60
2018-11-06T20:39:32.608Z,4.70
2018-11-06T20:42:02.112Z,3.08
2018-11-06T20:44:32.126Z,2.83
2018-11-06T20:47:08.308Z,3.10
2018-11-06T20:49:41.484Z,3.15
2018-11-06T20:52:15.520Z,3.20
2018-11-06T20:54:48.692Z,2.80
2018-11-06T20:57:19.985Z,3.60
2018-11-06T20:59:51.651Z,3.65
2018-11-06T21:02:23.930Z,3.90
2018-11-06T21:05:04.806Z,5.87
2018-11-06T21:07:37.833Z,3.60
2018-11-06T21:10:10.188Z,3.02
2018-11-06T21:12:41.084Z,2.87
2018-11-06T21:15:14.249Z,3.75
2018-11-06T21:17:46.050Z,3.22
2018-11-06T21:20:19.122Z,3.47
2018-11-06T21:22:50.556Z,3.05
2018-11-06T21:25:21.195Z,2.90
2018-11-06T21:27:51.071Z,3.35
2018-11-06T21:30:23.670Z,2.75
2018-11-06T21:32:57.878Z,3.90
2018-11-06T21:35:29.905Z,3.10
2018-11-06T21:38:01.968Z,2.77
2018-11-06T21:40:33.568Z,3.30
2018-11-06T21:43:09.004Z,3.35
2018-11-06T21:45:39.915Z,3.30
2018-11-06T21:48:10.934Z,3.10
2018-11-06T21:50:44.249Z,2.80
2018-11-06T21:53:14.495Z,3.27
2018-11-06T21:55:47.030Z,5.47
2018-11-06T21:58:21.497Z,3.20
2018-11-06T22:00:53.811Z,3.27
2018-11-06T22:03:23.584Z,7.72
2018-11-06T22:05:52.983Z,4.08
2018-11-06T22:08:23.967Z,3.43
2018-11-06T22:10:54.080Z,3.10
2018-11-06T22:13:27.050Z,3.90
2018-11-06T22:15:58.280Z,3.00
2018-11-06T22:18:30.489Z,3.00
2018-11-06T22:20:59.913Z,3.22
2018-11-06T22:23:35.090Z,3.20
2018-11-06T22:26:04.667Z,3.40
2018-11-06T22:28:36.395Z,3.25
2018-11-06T22:31:07.330Z,3.30
2018-11-06T22:33:38.265Z,3.20
2018-11-06T22:36:13.829Z,3.92
2018-11-06T22:38:43.893Z,3.33
2018-11-06T22:41:14.568Z,3.30
2018-11-06T22:43:44.982Z,2.75
2018-11-06T22:46:14.402Z,3.10
2018-11-06T22:48:45.790Z,3.10
2018-11-06T22:51:22.544Z,3.10
2018-11-06T22:53:58.907Z,3.30
2018-11-06T22:56:28.639Z,3.10
2018-11-06T22:59:00.758Z,3.25
2018-11-06T23:01:33.115Z,3.70
2018-11-06T23:04:03.445Z,3.20
2018-11-06T23:06:34.106Z,2.83
2018-11-06T23:09:06.705Z,3.25
2018-11-06T23:11:38.225Z,3.00
2018-11-06T23:14:10.194Z,3.27
2018-11-06T23:16:44.645Z,3.80
2018-11-06T23:19:15.689Z,2.95
2018-11-06T23:21:47.458Z,3.60
2018-11-06T23:24:17.951Z,3.57
2018-11-06T23:26:50.507Z,3.98
2018-11-06T23:29:22.522Z,3.37
2018-11-06T23:31:54.233Z,3.17
2018-11-06T23:34:24.432Z,3.60
2018-11-06T23:36:57.156Z,4.00
2018-11-06T23:39:27.153Z,3.80
2018-11-06T23:41:59.927Z,3.40
2018-11-06T23:44:31.007Z,3.45
2018-11-06T23:47:00.921Z,3.70
2018-11-06T23:49:32.009Z,3.72
2018-11-06T23:52:02.873Z,3.40
2018-11-06T23:54:45.365Z,5.37
2018-11-06T23:57:16.808Z,4.87
2018-11-06T23:59:46.846Z,3.62
